VOBZ/VGA METAR and TAF weather

Enter ICAO airport designator
Station Type Date Time Source
VOBZ METAR 2022/07/02 10:30 UTC NOAA

VOBZ 021030Z 33005KT 6000 SCT020 BKN100 34/25 Q0998 NOSIG


Station Type Date Time Source
VOBZ Decoded METAR 2022/07/02 10:30 UTC NOAA

Vijayawada / Gannavaram, India (VOBZ) 16-32N 080-48E 24M
Jul 02, 2022 - 06:30 AM EDT / 2022.07.02 1030 UTC
Wind: from the NNW (330 degrees) at 6 MPH (5 KT):0
Visibility: 3 mile(s):0
Sky conditions: mostly cloudy
Temperature: 93 F (34 C)
Heat index: 106.7 F (41.5 C):1
Dew Point: 77 F (25 C)
Relative Humidity: 59%
Pressure (altimeter): 29.47 in. Hg (0998 hPa)
ob: VOBZ 021030Z 33005KT 6000 SCT020 BKN100 34/25 Q0998 NOSIG
cycle: 10

Station Type Date Time Source
VOBZ TAF 2022/07/02 06:00 UTC NOAA

TAF VOBZ 020500Z 0206/0312 29010G25KT 6000 FEW010 SCT015 BKN100
TEMPO 0210/0218 3000 TSRA SCT010 FEW030CB OVC080
BECMG 0218/0220 26008KT 5000 -DZ BR SCT015 BKN100
TEMPO 0223/0304 3000 RA SCT010 OVC080
BECMG 0304/0306 26010KT 6000 SCT015 SCT025 BKN100

Example: see airport list